Data for 06/18/2018

Time Sea-Level Adjusted Pressure Absolute Pressure Temperature Relative Humidity Dew Point   
(mb) (inHg) (mb) (inHg) (C) (F) (%) (C) (F)
00:05 1018 30.06 847 25.01 10.8 51.4 85 8.3 47
00:10 1018 30.06 847 25.01 10.9 51.5 84 8.3 47
00:15 1018 30.06 847 25.01 10.9 51.6 85 8.4 47.2
00:20 1018 30.06 847 25.01 10.9 51.6 84 8.4 47.1
00:25 1018 30.06 847 25.01 11 51.7 84 8.3 46.9
00:30 1018 30.06 847 25.01 11 51.9 84 8.4 47.1
00:35 1018 30.06 847 25.01 11 51.8 84 8.5 47.2
00:40 1018 30.06 847 25.01 10.9 51.7 85 8.5 47.3
00:45 1018 30.06 847 25.01 10.9 51.6 84 8.4 47.1
00:50 1018 30.06 847 25.01 11 51.7 84 8.4 47.1
00:55 1018 30.06 847 25.01 11 51.8 84 8.4 47.1
01:00 1018 30.06 847 25.01 11.1 51.9 83 8.3 47
01:05 1018 30.06 847 25.01 11.1 52 83 8.3 47
01:10 1018 30.06 847 25.01 11.2 52.1 82 8.3 46.9
01:15 1018 30.06 847 25.01 11.2 52.1 83 8.4 47.1
01:20 1018 30.06 847 25.01 11.1 52 83 8.4 47.1
01:25 1018 30.06 847 25.01 11.2 52.1 83 8.4 47.1
01:30 1018 30.06 847 25.01 11.2 52.2 82 8.3 47
01:35 1018 30.06 847 25.01 11.2 52.2 83 8.4 47.2
01:40 1018 30.06 847 25.01 11.3 52.3 82 8.4 47
01:45 1018 30.06 847 25.01 11.3 52.3 82 8.4 47.2
01:50 1018 30.06 847 25.01 11.3 52.3 82 8.4 47.1
01:55 1018 30.06 847 25.01 11.3 52.4 82 8.3 46.9
02:00 1018 30.06 847 25.01 11.4 52.5 81 8.2 46.8
02:05 1018 30.06 847 25.01 11.4 52.6 82 8.4 47.2
02:10 1018 30.06 847 25.01 11.3 52.3 83 8.4 47.2
02:15 1018 30.06 847 25.01 11.2 52.2 83 8.4 47.1
02:20 1018 30.06 847 25.01 11.2 52.2 83 8.5 47.2
02:25 1018 30.06 847 25.01 11.2 52.1 83 8.5 47.2
02:30 1017 30.03 847 25.01 11.2 52.1 83 8.4 47.1
02:35 1017 30.03 847 25.01 11.2 52.1 84 8.5 47.3
02:40 1017 30.03 847 25.01 11.1 52 84 8.5 47.2
02:45 1017 30.03 847 25.01 11.2 52.1 84 8.5 47.4
02:50 1017 30.03 847 25.01 11.2 52.1 83 8.5 47.3
02:55 1017 30.03 847 25.01 11.2 52.1 84 8.5 47.4
03:00 1017 30.03 847 25.01 11.2 52.1 83 8.5 47.3
03:05 1017 30.03 847 25.01 11.2 52.2 83 8.4 47.1
03:10 1017 30.03 847 25.01 11.3 52.4 82 8.3 47
03:15 1017 30.03 847 25.01 11.4 52.5 82 8.5 47.3
03:20 1017 30.03 847 25.01 11.4 52.4 82 8.5 47.2
03:25 1017 30.03 847 25.01 11.4 52.4 82 8.5 47.3
03:30 1017 30.03 847 25.01 11.3 52.4 83 8.5 47.3
03:35 1017 30.03 847 25.01 11.3 52.4 82 8.4 47.2
03:40 1017 30.03 847 25.01 11.3 52.4 82 8.4 47.2
03:45 1017 30.03 847 25.01 11.3 52.3 83 8.5 47.2
03:50 1017 30.03 847 25.01 11.3 52.3 83 8.5 47.4
03:55 1017 30.03 847 25.01 11.2 52.1 83 8.5 47.3
04:00 1017 30.03 847 25.01 11.2 52.2 83 8.4 47.2
04:05 1017 30.03 847 25.01 11.2 52.1 84 8.6 47.5
04:10 1017 30.03 847 25.01 11.1 51.9 84 8.5 47.4
04:15 1017 30.03 847 25.01 11.1 52 84 8.6 47.4
04:20 1017 30.03 847 25.01 11.1 52 84 8.5 47.3
04:25 1017 30.03 847 25.01 11.1 52 84 8.5 47.3
04:30 1017 30.03 846 24.98 11.1 52 84 8.6 47.4
04:35 1017 30.03 847 25.01 11.1 51.9 84 8.5 47.2
04:40 1017 30.03 847 25.01 11.1 52 84 8.5 47.3
04:45 1017 30.03 847 25.01 11.1 52 84 8.4 47.2
04:50 1017 30.03 847 25.01 11 51.9 85 8.5 47.4
04:55 1017 30.03 847 25.01 10.9 51.6 84 8.4 47.1
05:00 1017 30.03 847 25.01 10.9 51.7 84 8.4 47.2
05:05 1017 30.03 847 25.01 10.9 51.6 85 8.4 47.2
05:10 1017 30.03 847 25.01 10.9 51.5 85 8.4 47.2
05:15 1017 30.03 847 25.01 10.8 51.5 85 8.4 47.1
05:20 1017 30.03 846 24.98 10.8 51.5 85 8.4 47.1
05:25 1017 30.03 847 25.01 10.8 51.4 85 8.4 47.1
05:30 1017 30.03 847 25.01 10.8 51.4 85 8.4 47.1
05:35 1017 30.03 847 25.01 10.7 51.3 85 8.4 47.1
05:40 1017 30.03 846 24.98 10.7 51.2 86 8.4 47.1
05:45 1017 30.03 846 24.98 10.6 51.1 86 8.4 47.1
05:50 1017 30.03 846 24.98 10.6 51.1 86 8.4 47.1
05:55 1017 30.03 846 24.98 10.6 51.2 85 8.3 46.9
06:00 1017 30.03 846 24.98 10.7 51.2 85 8.3 46.9
06:05 1017 30.03 846 24.98 10.6 51.1 85 8.2 46.8
06:10 1017 30.03 846 24.98 10.6 51.1 85 8.2 46.8
06:15 1017 30.03 846 24.98 10.6 51.1 85 8.2 46.7
06:20 1017 30.03 846 24.98 10.7 51.2 85 8.2 46.8
06:25 1017 30.03 846 24.98 10.6 51.1 85 8.2 46.7
06:30 1017 30.03 846 24.98 10.6 51.1 85 8.2 46.8
06:35 1017 30.03 846 24.98 10.6 51 85 8.2 46.8
06:40 1017 30.03 846 24.98 10.6 51.1 85 8.3 46.9
06:45 1017 30.03 846 24.98 10.6 51.1 85 8.3 46.9
06:50 1017 30.03 846 24.98 10.6 51 85 8.2 46.8
06:55 1017 30.03 846 24.98 10.6 51 86 8.3 46.9
07:00 1017 30.03 846 24.98 10.5 51 85 8.2 46.8
07:05 1017 30.03 846 24.98 10.6 51 86 8.3 46.9
07:10 1017 30.03 846 24.98 10.6 51 85 8.3 46.9
07:15 1017 30.03 846 24.98 10.6 51 86 8.4 47.1
07:20 1017 30.03 846 24.98 10.6 51 86 8.3 46.9
07:25 1017 30.03 846 24.98 10.6 51.1 86 8.3 47
07:30 1017 30.03 846 24.98 10.6 51.1 86 8.4 47.2
07:35 1017 30.03 846 24.98 10.6 51.1 86 8.3 47
07:40 1017 30.03 846 24.98 10.7 51.2 86 8.4 47.2
07:45 1017 30.03 846 24.98 10.7 51.3 85 8.3 47
07:50 1017 30.03 847 25.01 10.8 51.5 85 8.4 47.2
07:55 1017 30.03 847 25.01 10.8 51.5 86 8.6 47.4
08:00 1017 30.03 847 25.01 10.8 51.5 86 8.5 47.3
08:05 1017 30.03 847 25.01 10.9 51.5 86 8.6 47.5
08:10 1017 30.03 847 25.01 10.8 51.5 85 8.4 47.2
08:15 1017 30.03 847 25.01 10.9 51.6 85 8.4 47.1
08:20 1017 30.03 847 25.01 11 51.7 85 8.5 47.3
08:25 1017 30.03 847 25.01 11 51.7 85 8.5 47.3
08:30 1017 30.03 847 25.01 11 51.7 85 8.6 47.4
08:35 1017 30.03 847 25.01 11 51.8 85 8.6 47.5
08:40 1018 30.06 847 25.01 11 51.8 85 8.6 47.4
08:45 1018 30.06 847 25.01 11 51.7 86 8.7 47.6
08:50 1018 30.06 847 25.01 11 51.7 85 8.6 47.5
08:55 1018 30.06 847 25.01 11 51.7 85 8.6 47.5
09:00 1018 30.06 847 25.01 11 51.7 86 8.7 47.6
09:05 1018 30.06 847 25.01 11 51.7 86 8.6 47.5
09:10 1018 30.06 847 25.01 11 51.8 86 8.7 47.7
09:15 1018 30.06 847 25.01 11.1 51.9 85 8.7 47.7
09:20 1018 30.06 847 25.01 11.1 52.1 86 8.9 48
09:25 1018 30.06 847 25.01 11.1 52 86 8.9 48.1
09:30 1018 30.06 847 25.01 11.2 52.2 85 8.9 47.9
09:35 1018 30.06 847 25.01 11.4 52.4 87 9.2 48.6
09:40 1018 30.06 847 25.01 11.5 52.7 86 9.3 48.7
09:45 1018 30.06 847 25.01 11.7 53 85 9.2 48.6
09:50 1018 30.06 847 25.01 11.6 52.9 84 9 48.1
09:55 1017 30.03 847 25.01 11.6 52.9 85 9.1 48.5
10:00 1017 30.03 847 25.01 11.7 53.1 84 9 48.3
10:05 1017 30.03 847 25.01 11.8 53.3 85 9.4 48.8
10:10 1017 30.03 847 25.01 11.9 53.3 84 9.2 48.6
10:15 1017 30.03 847 25.01 11.9 53.5 84 9.3 48.8
10:20 1017 30.03 847 25.01 12 53.7 84 9.5 49.1
10:25 1017 30.03 847 25.01 12.2 53.9 84 9.6 49.3
10:30 1017 30.03 847 25.01 12.3 54.1 83 9.6 49.2
10:35 1017 30.03 847 25.01 12.3 54.2 84 9.7 49.4
10:40 1017 30.03 847 25.01 12.6 54.6 83 9.8 49.6
10:45 1017 30.03 847 25.01 12.6 54.6 83 9.8 49.6
10:50 1017 30.03 847 25.01 12.6 54.6 85 10.1 50.1
10:55 1017 30.03 847 25.01 12.7 54.9 82 9.6 49.4
11:00 1017 30.03 847 25.01 12.8 55 81 9.6 49.2
11:05 1017 30.03 847 25.01 12.7 54.9 81 9.6 49.3
11:10 1017 30.03 847 25.01 12.7 54.8 81 9.5 49.1
11:15 1017 30.03 847 25.01 12.7 54.8 82 9.6 49.3
11:20 1017 30.03 847 25.01 12.7 54.9 80 9.5 49
11:25 1017 30.03 847 25.01 12.8 55 80 9.4 49
11:30 1017 30.03 847 25.01 12.8 55 80 9.5 49.1
11:35 1017 30.03 847 25.01 12.8 55.1 81 9.6 49.2
11:40 1017 30.03 846 24.98 12.8 55 82 9.7 49.5
11:45 1017 30.03 846 24.98 12.9 55.2 79 9.4 49
11:50 1017 30.03 846 24.98 13 55.3 79 9.5 49.1
11:55 1017 30.03 847 25.01 13 55.3 78 9.3 48.8
12:00 1017 30.03 846 24.98 13 55.4 78 9.3 48.7
12:05 1017 30.03 846 24.98 13.1 55.6 78 9.3 48.8
12:10 1017 30.03 846 24.98 13.1 55.6 76 9 48.2
12:15 1017 30.03 846 24.98 13.1 55.6 75 8.9 47.9
12:20 1017 30.03 846 24.98 13.1 55.5 75 8.9 48
12:25 1017 30.03 847 25.01 13.1 55.6 76 9 48.2
12:30 1017 30.03 847 25.01 13.2 55.7 75 8.9 48
12:35 1017 30.03 847 25.01 13.3 55.9 78 9.5 49.2
12:40 1017 30.03 847 25.01 13.4 56.1 77 9.5 49
12:45 1017 30.03 847 25.01 13.3 56 77 9.3 48.8
12:50 1017 30.03 847 25.01 13.1 55.6 78 9.4 48.9
12:55 1017 30.03 847 25.01 13.1 55.6 78 9.3 48.8
13:00 1017 30.03 847 25.01 12.9 55.3 77 9 48.3
13:05 1017 30.03 847 25.01 12.7 54.9 79 9.2 48.5
13:10 1017 30.03 847 25.01 12.5 54.6 81 9.4 49
13:15 1017 30.03 847 25.01 12.4 54.2 83 9.5 49.2
13:20 1017 30.03 847 25.01 12.3 54.1 83 9.5 49.1
13:25 1017 30.03 847 25.01 12.2 54 82 9.2 48.6
13:30 1017 30.03 847 25.01 12.2 54 82 9.3 48.7
13:35 1017 30.03 847 25.01 12.2 54 84 9.6 49.2
13:40 1017 30.03 847 25.01 12.3 54.1 84 9.7 49.4
13:45 1017 30.03 847 25.01 12.3 54.2 84 9.6 49.4
13:50 1017 30.03 847 25.01 12.3 54.1 83 9.4 49
13:55 1017 30.03 847 25.01 12.2 53.9 82 9.2 48.5
14:00 1018 30.06 847 25.01 12.1 53.9 82 9.2 48.6
14:05 1018 30.06 847 25.01 12.2 54 82 9.3 48.7
14:10 1018 30.06 847 25.01 12.3 54.1 81 9.2 48.5
14:15 1018 30.06 847 25.01 12.3 54.2 82 9.3 48.8
14:20 1018 30.06 847 25.01 12.2 54 82 9.3 48.7
14:25 1018 30.06 847 25.01 12.2 53.9 83 9.4 49
14:30 1018 30.06 847 25.01 12.1 53.8 84 9.6 49.3
14:35 1018 30.06 847 25.01 11.8 53.3 85 9.4 49
14:40 1018 30.06 847 25.01 11.8 53.3 87 9.7 49.4
14:45 1018 30.06 847 25.01 12.1 53.7 87 10 50
14:50 1018 30.06 847 25.01 12.1 53.7 85 9.6 49.4
14:55 1018 30.06 847 25.01 12 53.6 86 9.7 49.5
15:00 1018 30.06 847 25.01 11.9 53.5 86 9.7 49.5
15:05 1018 30.06 847 25.01 12 53.5 87 9.9 49.9
15:10 1018 30.06 847 25.01 12.1 53.7 87 10.1 50.1
15:15 1018 30.06 847 25.01 12 53.6 88 10.1 50.1
15:20 1018 30.06 848 25.04 12.1 53.8 86 9.9 49.7
15:25 1018 30.06 848 25.04 12 53.7 83 9.2 48.6
15:30 1018 30.06 848 25.04 12.1 53.8 84 9.6 49.2
15:35 1018 30.06 848 25.04 12.3 54.1 84 9.7 49.5
15:40 1019 30.09 848 25.04 12.4 54.3 85 9.9 49.9
15:45 1019 30.09 848 25.04 12.3 54.2 82 9.4 49
15:50 1019 30.09 848 25.04 12.2 53.9 83 9.3 48.8
15:55 1019 30.09 848 25.04 12 53.5 85 9.5 49
16:00 1019 30.09 848 25.04 11.9 53.5 82 9 48.3
16:05 1019 30.09 848 25.04 11.8 53.2 84 9.1 48.4
16:10 1019 30.09 848 25.04 11.9 53.4 83 9.1 48.3
16:15 1019 30.09 848 25.04 11.6 52.9 84 8.9 48.1
16:20 1019 30.09 848 25.04 11.4 52.5 84 8.8 47.9
16:25 1019 30.09 848 25.04 11.4 52.4 84 8.8 47.8
16:30 1019 30.09 848 25.04 11.2 52.2 85 8.8 47.9
16:35 1019 30.09 848 25.04 11.2 52.2 85 8.8 47.8
16:40 1019 30.09 848 25.04 11.3 52.4 86 9.1 48.3
16:45 1019 30.09 848 25.04 11.5 52.7 84 9 48.1
16:50 1019 30.09 848 25.04 11.7 53.1 83 9 48.2
16:55 1019 30.09 848 25.04 12 53.6 82 9.1 48.3
17:00 1019 30.09 848 25.04 12.1 53.8 80 8.8 47.8
17:05 1019 30.09 848 25.04 12.2 54 78 8.6 47.4
17:10 1019 30.09 848 25.04 12.6 54.7 75 8.3 46.9
17:15 1019 30.09 848 25.04 13 55.4 67 7.1 44.7
17:20 1019 30.09 848 25.04 13.2 55.7 67 7.3 45.1
17:25 1019 30.09 848 25.04 13.9 57 66 7.7 45.8
17:30 1019 30.09 848 25.04 14 57.2 66 7.9 46.2
17:35 1019 30.09 848 25.04 13.6 56.5 68 7.9 46.2
17:40 1019 30.09 848 25.04 13.7 56.7 61 6.5 43.6
17:45 1019 30.09 848 25.04 13.8 56.8 60 6.2 43.1
17:50 1019 30.09 848 25.04 14.2 57.6 64 7.6 45.7
17:55 1019 30.09 848 25.04 14.3 57.8 60 6.8 44.2
18:00 1019 30.09 848 25.04 14.1 57.4 60 6.5 43.6
18:05 1018 30.06 848 25.04 14.7 58.4 56 6 42.9
18:10 1019 30.09 848 25.04 14.7 58.4 59 6.8 44.2
18:15 1019 30.09 848 25.04 14.9 58.8 56 6.1 43
18:20 1019 30.09 848 25.04 14.1 57.3 53 4.8 40.6
18:25 1019 30.09 848 25.04 14 57.2 57 5.6 42.1
18:30 1019 30.09 848 25.04 14.2 57.5 56 5.5 41.9
18:35 1019 30.09 848 25.04 14.5 58.1 54 5.3 41.6
18:40 1019 30.09 848 25.04 14.6 58.3 55 5.8 42.4
18:45 1019 30.09 848 25.04 14.6 58.3 53 5.1 41.2
18:50 1019 30.09 848 25.04 15 59.1 51 5.1 41.2
18:55 1019 30.09 848 25.04 14.7 58.4 55 5.8 42.5
19:00 1019 30.09 848 25.04 14.7 58.5 53 5.4 41.7
19:05 1019 30.09 848 25.04 14.7 58.4 57 6.3 43.4
19:10 1019 30.09 848 25.04 14.4 58 57 6.1 43
19:15 1019 30.09 848 25.04 14.2 57.5 59 6.4 43.5
19:20 1019 30.09 848 25.04 14.2 57.6 61 6.8 44.2
19:25 1019 30.09 848 25.04 14.1 57.3 63 7.2 45
19:30 1019 30.09 848 25.04 13.8 56.8 66 7.5 45.5
19:35 1019 30.09 848 25.04 13.5 56.3 66 7.3 45.2
19:40 1019 30.09 848 25.04 13.4 56 65 7 44.6
19:45 1019 30.09 848 25.04 13.5 56.3 65 7.1 44.8
19:50 1019 30.09 848 25.04 13.7 56.6 66 7.5 45.5
19:55 1019 30.09 848 25.04 13.7 56.7 66 7.5 45.5
20:00 1019 30.09 848 25.04 13.7 56.6 66 7.4 45.4
20:05 1019 30.09 848 25.04 13.6 56.5 67 7.6 45.7
20:10 1019 30.09 848 25.04 13.5 56.3 68 7.7 45.8
20:15 1019 30.09 848 25.04 13.3 55.9 68 7.6 45.7
20:20 1019 30.09 848 25.04 13.2 55.8 69 7.7 45.8
20:25 1019 30.09 848 25.04 13.1 55.6 69 7.6 45.7
20:30 1019 30.09 848 25.04 13 55.4 69 7.5 45.6
20:35 1019 30.09 848 25.04 12.9 55.1 69 7.5 45.4
20:40 1019 30.09 848 25.04 12.8 55.1 70 7.6 45.7
20:45 1019 30.09 848 25.04 12.7 54.9 71 7.6 45.7
20:50 1019 30.09 849 25.07 12.6 54.7 72 7.7 45.8
20:55 1019 30.09 849 25.07 12.5 54.5 72 7.6 45.7
21:00 1019 30.09 849 25.07 12.4 54.4 72 7.6 45.7
21:05 1020 30.12 849 25.07 12.3 54.1 73 7.7 45.8
21:10 1020 30.12 849 25.07 12 53.7 75 7.7 45.9
21:15 1020 30.12 849 25.07 11.9 53.4 75 7.5 45.6
21:20 1020 30.12 849 25.07 11.8 53.3 74 7.5 45.4
21:25 1020 30.12 849 25.07 11.8 53.3 75 7.5 45.5
21:30 1020 30.12 849 25.07 11.8 53.2 76 7.7 45.9
21:35 1020 30.12 849 25.07 11.7 53 77 7.9 46.2
21:40 1020 30.12 849 25.07 11.6 52.8 78 7.9 46.2
21:45 1020 30.12 849 25.07 11.5 52.6 78 7.8 46
21:50 1020 30.12 849 25.07 11.6 52.8 77 7.7 45.8
21:55 1020 30.12 850 25.1 11.6 53 77 7.8 46
22:00 1020 30.12 850 25.1 11.6 52.9 79 8.1 46.6
22:05 1020 30.12 850 25.1 11.4 52.4 80 8 46.4
22:10 1020 30.12 850 25.1 10.7 51.3 84 8.1 46.5
22:15 1020 30.12 850 25.1 10.6 51 85 8.2 46.7
22:20 1020 30.12 850 25.1 10.4 50.7 85 8.1 46.5
22:25 1020 30.12 849 25.07 10.2 50.4 88 8.3 47
22:30 1020 30.12 849 25.07 10.1 50.1 89 8.3 46.9
22:35 1020 30.12 850 25.1 9.9 49.9 88 8.1 46.6
22:40 1020 30.12 850 25.1 9.8 49.6 89 8 46.4
22:45 1020 30.12 850 25.1 9.9 49.8 88 8 46.5
22:50 1020 30.12 850 25.1 9.9 49.9 87 7.8 46.1
22:55 1020 30.12 850 25.1 9.9 49.8 87 7.8 46.1
23:00 1020 30.12 850 25.1 10 49.9 87 7.9 46.2
23:05 1020 30.12 850 25.1 10 49.9 87 7.9 46.2
23:10 1020 30.12 849 25.07 10 50 87 7.9 46.2
23:15 1020 30.12 849 25.07 10 49.9 86 7.8 46.1
23:20 1020 30.12 849 25.07 9.9 49.9 85 7.6 45.6
23:25 1020 30.12 849 25.07 9.9 49.9 85 7.5 45.5
23:30 1020 30.12 849 25.07 10 49.9 85 7.6 45.7
23:35 1020 30.12 849 25.07 10 50 84 7.5 45.4
23:40 1020 30.12 849 25.07 10 50 84 7.4 45.2
23:45 1020 30.12 849 25.07 10.1 50.2 85 7.6 45.7
23:50 1020 30.12 849 25.07 10.1 50.1 85 7.7 45.9
23:55 1020 30.12 849 25.07 10 50 85 7.6 45.7
24:00 1020 30.12 849 25.07 10 50 86 7.8 46.1